createdAt,value
2018-03-01T00:02:26.370Z,14.23
2018-03-01T00:04:55.602Z,12.40
2018-03-01T00:07:23.868Z,13.10
2018-03-01T00:09:52.130Z,12.83
2018-03-01T00:12:20.381Z,10.80
2018-03-01T00:14:48.630Z,13.47
2018-03-01T00:17:16.914Z,14.47
2018-03-01T00:19:45.934Z,14.20
2018-03-01T00:22:41.167Z,15.17
2018-03-01T00:25:09.421Z,13.70
2018-03-01T00:27:37.679Z,13.50
2018-03-01T00:30:06.147Z,13.63
2018-03-01T00:32:35.171Z,13.33
2018-03-01T00:35:03.435Z,10.80
2018-03-01T00:37:31.727Z,12.77
2018-03-01T00:39:59.984Z,11.80
2018-03-01T00:42:29.002Z,13.40
2018-03-01T00:44:57.754Z,12.93
2018-03-01T00:47:26.012Z,14.27
2018-03-01T00:49:54.271Z,13.40
2018-03-01T00:52:22.557Z,13.57
2018-03-01T00:54:50.871Z,12.40
2018-03-01T00:57:19.143Z,12.50
2018-03-01T00:59:47.418Z,14.17
2018-03-01T01:02:15.672Z,13.53
2018-03-01T01:04:43.928Z,14.03
2018-03-01T01:07:12.807Z,12.63
2018-03-01T01:09:41.065Z,13.00
2018-03-01T01:12:09.323Z,13.97
2018-03-01T01:14:37.611Z,14.13
2018-03-01T01:17:05.867Z,13.80
2018-03-01T01:19:34.118Z,13.30
2018-03-01T01:22:02.398Z,14.23
2018-03-01T01:24:30.661Z,13.20
2018-03-01T01:26:58.919Z,12.83
2018-03-01T01:29:27.606Z,14.60
2018-03-01T01:31:55.860Z,14.63
2018-03-01T01:34:24.114Z,14.37
2018-03-01T01:36:52.390Z,13.67
2018-03-01T01:39:21.411Z,12.80
2018-03-01T01:41:49.667Z,13.53
2018-03-01T01:44:17.950Z,14.60
2018-03-01T01:46:46.446Z,13.20
2018-03-01T01:49:14.699Z,12.73
2018-03-01T01:51:43.322Z,13.10
2018-03-01T01:54:11.583Z,13.60
2018-03-01T01:56:39.838Z,13.40
2018-03-01T01:59:08.115Z,12.10
2018-03-01T02:01:36.392Z,13.40
2018-03-01T02:04:04.643Z,13.70
2018-03-01T02:06:32.927Z,12.23
2018-03-01T02:09:01.951Z,13.30
2018-03-01T02:11:31.036Z,13.33
2018-03-01T02:13:59.662Z,13.97
2018-03-01T02:16:27.920Z,13.33
2018-03-01T02:18:56.171Z,13.87
2018-03-01T02:21:24.476Z,12.90
2018-03-01T02:23:52.711Z,13.40
2018-03-01T02:26:20.967Z,12.93
2018-03-01T02:28:49.246Z,15.47
2018-03-01T02:31:17.501Z,14.00
2018-03-01T02:33:45.751Z,14.03
2018-03-01T02:36:29.214Z,14.27
2018-03-01T02:38:57.460Z,13.43
2018-03-01T02:41:25.722Z,13.83
2018-03-01T02:43:53.999Z,13.90
2018-03-01T02:46:22.255Z,12.40
2018-03-01T02:48:50.739Z,13.87
2018-03-01T02:51:19.789Z,12.63
2018-03-01T02:53:48.090Z,13.90
2018-03-01T02:56:16.350Z,14.73
2018-03-01T02:58:44.910Z,12.17
2018-03-01T03:01:13.262Z,12.80
2018-03-01T03:03:42.281Z,14.23
2018-03-01T03:06:10.558Z,14.60
2018-03-01T03:08:38.823Z,15.27
2018-03-01T03:11:07.082Z,14.30
2018-03-01T03:13:36.134Z,11.73
2018-03-01T03:16:04.382Z,13.67
2018-03-01T03:18:32.638Z,13.47
2018-03-01T03:21:01.259Z,13.63
2018-03-01T03:23:29.517Z,15.10
2018-03-01T03:25:57.766Z,12.73
2018-03-01T03:28:26.042Z,13.93
2018-03-01T03:30:55.073Z,13.73
2018-03-01T03:33:23.327Z,11.33
2018-03-01T03:35:51.606Z,9.87
2018-03-01T03:38:19.862Z,12.80
2018-03-01T03:40:48.878Z,13.47
2018-03-01T03:43:17.522Z,11.93
2018-03-01T03:45:45.782Z,13.13
2018-03-01T03:48:14.043Z,12.23
2018-03-01T03:50:42.658Z,12.30
2018-03-01T03:53:10.912Z,12.50
2018-03-01T03:55:39.167Z,12.40
2018-03-01T03:58:07.444Z,14.00
2018-03-01T04:00:35.703Z,12.70
2018-03-01T04:03:03.964Z,13.23
2018-03-01T04:05:33.310Z,13.17
2018-03-01T04:08:01.574Z,8.77
2018-03-01T04:10:29.822Z,12.13
2018-03-01T04:12:58.098Z,12.87
2018-03-01T04:15:27.123Z,12.40
2018-03-01T04:17:55.375Z,10.77
2018-03-01T04:20:23.651Z,11.47
2018-03-01T04:22:51.930Z,13.10
2018-03-01T04:25:20.307Z,11.00
2018-03-01T04:27:49.646Z,12.10
2018-03-01T04:30:17.910Z,11.23
2018-03-01T04:32:46.159Z,11.30
2018-03-01T04:35:14.792Z,10.47
2018-03-01T04:37:43.045Z,10.30
2018-03-01T04:40:11.298Z,13.00
2018-03-01T04:42:39.587Z,12.40
2018-03-01T04:45:07.849Z,11.73
2018-03-01T04:47:36.102Z,10.47
2018-03-01T04:50:04.740Z,9.90
2018-03-01T04:52:33.399Z,11.43
2018-03-01T04:55:02.420Z,11.90
2018-03-01T04:57:30.699Z,11.63
2018-03-01T04:59:58.959Z,11.60
2018-03-01T05:02:27.218Z,12.10
2018-03-01T05:04:56.264Z,11.03
2018-03-01T05:07:24.518Z,11.23
2018-03-01T05:09:52.982Z,11.27
2018-03-01T05:12:23.215Z,10.93
2018-03-01T05:14:51.471Z,12.33
2018-03-01T05:17:19.726Z,11.97
2018-03-01T05:19:48.773Z,11.80
2018-03-01T05:22:17.024Z,11.30
2018-03-01T05:24:46.044Z,12.23
2018-03-01T05:27:14.327Z,11.07
2018-03-01T05:29:42.579Z,9.03
2018-03-01T05:32:10.844Z,11.00
2018-03-01T05:34:40.193Z,12.10
2018-03-01T05:37:08.448Z,11.57
2018-03-01T05:39:36.699Z,9.60
2018-03-01T05:42:05.235Z,9.23
2018-03-01T05:44:33.483Z,12.33
2018-03-01T05:47:01.757Z,11.30
2018-03-01T05:49:30.139Z,10.97
2018-03-01T05:51:58.459Z,10.47
2018-03-01T05:54:26.862Z,11.53
2018-03-01T05:56:56.530Z,9.40
2018-03-01T05:59:24.778Z,11.40
2018-03-01T06:01:53.067Z,9.00
2018-03-01T06:04:21.343Z,11.43
2018-03-01T06:06:49.614Z,11.10
2018-03-01T06:09:17.862Z,10.97
2018-03-01T06:11:46.147Z,11.17
2018-03-01T06:14:14.419Z,11.43
2018-03-01T06:16:42.750Z,11.70
2018-03-01T06:19:11.305Z,15.60
2018-03-01T06:21:39.555Z,10.70
2018-03-01T06:24:07.819Z,8.70
2018-03-01T06:26:36.103Z,12.03
2018-03-01T06:29:05.122Z,11.33
2018-03-01T06:31:33.379Z,11.17
2018-03-01T06:34:01.659Z,10.13
2018-03-01T06:36:29.923Z,12.10
2018-03-01T06:38:58.947Z,11.90
2018-03-01T06:41:27.461Z,11.73
2018-03-01T06:43:55.738Z,9.90
2018-03-01T06:46:23.967Z,10.63
2018-03-01T06:48:52.251Z,11.50
2018-03-01T06:51:20.506Z,11.00
2018-03-01T06:53:49.532Z,11.73
2018-03-01T06:56:18.216Z,11.27
2018-03-01T06:58:46.475Z,11.10
2018-03-01T07:01:14.736Z,10.83
2018-03-01T07:03:43.489Z,11.70
2018-03-01T07:06:11.730Z,9.50
2018-03-01T07:08:39.975Z,11.73
2018-03-01T07:11:08.310Z,11.50
2018-03-01T07:13:36.527Z,10.83
2018-03-01T07:16:05.569Z,11.47
2018-03-01T07:18:33.934Z,12.10
2018-03-01T07:21:02.196Z,10.20
2018-03-01T07:23:30.449Z,11.37
2018-03-01T07:25:58.815Z,7.17
2018-03-01T07:28:27.835Z,9.80
2018-03-01T07:30:56.086Z,11.37
2018-03-01T07:33:24.363Z,10.30
2018-03-01T07:35:52.627Z,10.63
2018-03-01T07:38:20.899Z,9.47
2018-03-01T07:40:49.460Z,11.87
2018-03-01T07:43:17.718Z,11.70
2018-03-01T07:45:45.975Z,11.17
2018-03-01T07:48:14.539Z,11.30
2018-03-01T07:50:42.795Z,10.57
2018-03-01T07:53:11.048Z,9.23
2018-03-01T07:55:39.325Z,10.10
2018-03-01T07:58:07.984Z,11.77
2018-03-01T08:00:36.239Z,9.33
2018-03-01T08:03:04.515Z,10.67
2018-03-01T08:05:32.768Z,12.60
2018-03-01T08:08:01.023Z,11.17
2018-03-01T08:10:29.628Z,11.33
2018-03-01T08:12:57.886Z,10.63
2018-03-01T08:15:26.137Z,10.80
2018-03-01T08:17:54.422Z,10.30
2018-03-01T08:20:22.696Z,9.67
2018-03-01T08:22:50.939Z,11.90
2018-03-01T08:25:19.438Z,8.63
2018-03-01T08:27:48.804Z,10.53
2018-03-01T08:30:17.055Z,8.10
2018-03-01T08:32:45.638Z,11.67
2018-03-01T08:35:13.907Z,10.53
2018-03-01T08:37:42.159Z,12.43
2018-03-01T08:40:10.434Z,6.27
2018-03-01T08:42:38.689Z,11.90
2018-03-01T08:45:06.943Z,11.87
2018-03-01T08:47:35.224Z,11.30
2018-03-01T08:50:03.818Z,12.27
2018-03-01T08:52:32.070Z,10.43
2018-03-01T08:55:00.545Z,9.23
2018-03-01T08:57:28.797Z,10.10
2018-03-01T08:59:57.489Z,10.60
2018-03-01T09:02:25.775Z,11.80
2018-03-01T09:04:54.023Z,10.73
2018-03-01T09:07:22.282Z,12.20
2018-03-01T09:09:51.343Z,10.17
2018-03-01T09:12:19.591Z,10.67
2018-03-01T09:14:47.846Z,11.90
2018-03-01T09:17:16.504Z,9.80
2018-03-01T09:19:44.754Z,11.70
2018-03-01T09:22:13.007Z,11.93
2018-03-01T09:24:41.298Z,8.83
2018-03-01T09:27:09.584Z,10.40
2018-03-01T09:29:37.866Z,12.17
2018-03-01T09:32:06.324Z,11.73
2018-03-01T09:34:34.570Z,10.50
2018-03-01T09:37:02.830Z,9.67
2018-03-01T09:39:32.186Z,11.50
2018-03-01T09:42:00.447Z,10.20
2018-03-01T09:44:28.707Z,10.33
2018-03-01T09:46:56.999Z,10.40
2018-03-01T09:49:25.259Z,11.63
2018-03-01T09:51:53.519Z,10.87
2018-03-01T09:54:21.803Z,11.90
2018-03-01T09:56:50.826Z,12.37
2018-03-01T09:59:19.090Z,12.10
2018-03-01T10:01:47.903Z,9.03
2018-03-01T10:04:16.162Z,12.27
2018-03-01T10:06:44.423Z,11.93
2018-03-01T10:09:12.702Z,11.83
2018-03-01T10:11:40.956Z,12.20
2018-03-01T10:14:09.210Z,10.93
2018-03-01T10:16:37.488Z,10.83
2018-03-01T10:19:05.739Z,11.50
2018-03-01T10:21:34.007Z,11.33
2018-03-01T10:24:02.717Z,12.17
2018-03-01T10:26:30.971Z,11.57
2018-03-01T10:28:59.220Z,13.77
2018-03-01T10:31:27.498Z,13.00
2018-03-01T10:33:56.507Z,10.70
2018-03-01T10:36:24.759Z,10.63
2018-03-01T10:38:53.031Z,12.47
2018-03-01T10:41:21.284Z,11.60
2018-03-01T10:43:49.534Z,12.43
2018-03-01T10:46:18.091Z,12.23
2018-03-01T10:48:46.343Z,13.70
2018-03-01T10:51:14.617Z,11.47
2018-03-01T10:53:42.870Z,10.97
2018-03-01T10:56:11.122Z,13.00
2018-03-01T10:58:39.382Z,11.10
2018-03-01T11:01:13.255Z,12.73
2018-03-01T11:03:42.405Z,12.13
2018-03-01T11:06:10.655Z,12.50
2018-03-01T11:08:39.071Z,13.30
2018-03-01T11:11:07.320Z,13.33
2018-03-01T11:13:35.568Z,12.50
2018-03-01T11:16:03.841Z,10.70
2018-03-01T11:18:32.867Z,13.43
2018-03-01T11:21:01.127Z,13.80
2018-03-01T11:23:29.399Z,13.20
2018-03-01T11:25:57.646Z,13.87
2018-03-01T11:28:25.899Z,13.80
2018-03-01T11:30:54.474Z,13.40
2018-03-01T11:33:22.728Z,13.13
2018-03-01T11:35:51.155Z,13.30
2018-03-01T11:38:19.439Z,11.67
2018-03-01T11:40:47.698Z,14.53
2018-03-01T11:43:15.958Z,14.57
2018-03-01T11:45:44.242Z,13.70
2018-03-01T11:48:12.495Z,13.17
2018-03-01T11:50:40.747Z,14.43
2018-03-01T11:53:09.276Z,13.77
2018-03-01T11:55:37.527Z,12.77
2018-03-01T11:58:05.783Z,13.53
2018-03-01T12:00:34.063Z,13.40
2018-03-01T12:03:02.323Z,13.80
2018-03-01T12:05:30.816Z,13.40
2018-03-01T12:07:59.871Z,14.07
2018-03-01T12:10:28.139Z,13.60
2018-03-01T12:12:56.388Z,13.10
2018-03-01T12:15:24.995Z,14.20
2018-03-01T12:17:53.247Z,14.93
2018-03-01T12:20:21.503Z,13.30
2018-03-01T12:22:49.790Z,13.57
2018-03-01T12:25:18.043Z,12.77
2018-03-01T12:27:46.299Z,13.40
2018-03-01T12:30:14.706Z,13.27
2018-03-01T12:32:42.951Z,12.63
2018-03-01T12:35:11.216Z,15.07
2018-03-01T12:37:39.543Z,13.53
2018-03-01T12:40:07.815Z,12.57
2018-03-01T12:42:36.834Z,11.57
2018-03-01T12:45:05.111Z,12.20
2018-03-01T12:47:33.363Z,11.73
2018-03-01T12:50:01.627Z,13.57
2018-03-01T12:52:30.686Z,13.60
2018-03-01T12:54:58.935Z,13.10
2018-03-01T12:57:27.244Z,14.03
2018-03-01T12:59:55.594Z,13.60
2018-03-01T13:02:23.847Z,13.27
2018-03-01T13:04:53.808Z,13.77
2018-03-01T13:07:22.404Z,13.27
2018-03-01T13:09:50.655Z,14.50
2018-03-01T13:12:18.918Z,12.83
2018-03-01T13:14:47.199Z,13.17
2018-03-01T13:17:15.630Z,13.63
2018-03-01T13:19:43.885Z,13.40
2018-03-01T13:22:12.473Z,13.73
2018-03-01T13:24:40.743Z,12.90
2018-03-01T13:27:08.995Z,14.23
2018-03-01T13:29:37.274Z,13.50
2018-03-01T13:32:11.127Z,12.70
2018-03-01T13:34:40.000Z,13.37
2018-03-01T13:37:08.243Z,12.10
2018-03-01T13:39:36.499Z,13.50
2018-03-01T13:42:07.467Z,14.20
2018-03-01T13:44:35.715Z,13.50
2018-03-01T13:47:07.624Z,15.17
2018-03-01T13:49:35.904Z,13.13
2018-03-01T13:52:04.155Z,12.63
2018-03-01T13:54:32.419Z,13.17
2018-03-01T13:57:00.704Z,15.43
2018-03-01T13:59:28.962Z,15.73
2018-03-01T14:01:57.224Z,16.20
2018-03-01T14:04:26.382Z,16.10
2018-03-01T14:06:54.635Z,16.43
2018-03-01T14:09:23.467Z,15.00
2018-03-01T14:11:51.743Z,16.13
2018-03-01T14:14:22.970Z,17.00
2018-03-01T14:16:53.915Z,16.53
2018-03-01T14:19:40.975Z,15.23
2018-03-01T14:22:15.060Z,15.23
2018-03-01T14:24:43.318Z,15.70
2018-03-01T14:27:14.566Z,16.47
2018-03-01T14:29:46.343Z,16.37
2018-03-01T14:32:14.602Z,16.97
2018-03-01T14:34:42.860Z,16.83
2018-03-01T14:37:11.494Z,15.87
2018-03-01T14:39:39.706Z,16.30
2018-03-01T14:42:07.991Z,17.60
2018-03-01T14:44:36.601Z,16.00
2018-03-01T14:47:08.204Z,15.30
2018-03-01T14:49:36.838Z,17.10
2018-03-01T14:52:05.224Z,14.53
2018-03-01T14:54:33.467Z,16.13
2018-03-01T14:57:01.724Z,16.67
2018-03-01T14:59:30.009Z,15.63
2018-03-01T15:01:58.259Z,14.50
2018-03-01T15:04:27.299Z,14.63
2018-03-01T15:06:55.631Z,13.43
2018-03-01T15:09:24.918Z,14.50
2018-03-01T15:11:53.179Z,14.90
2018-03-01T15:14:21.455Z,14.90
2018-03-01T15:16:49.733Z,14.77
2018-03-01T15:19:17.987Z,14.40
2018-03-01T15:21:46.332Z,15.57
2018-03-01T15:24:14.560Z,15.70
2018-03-01T15:26:42.840Z,14.93
2018-03-01T15:29:11.199Z,16.50
2018-03-01T15:31:39.458Z,16.37
2018-03-01T15:34:07.720Z,17.10
2018-03-01T15:36:36.005Z,16.73
2018-03-01T15:39:04.272Z,17.10
2018-03-01T15:41:32.531Z,15.83
2018-03-01T15:44:00.879Z,13.70
2018-03-01T15:46:29.185Z,16.33
2018-03-01T15:48:57.426Z,18.00
2018-03-01T15:51:26.203Z,15.17
2018-03-01T15:53:54.467Z,15.73
2018-03-01T15:56:22.722Z,15.87
2018-03-01T15:58:50.998Z,16.93
2018-03-01T16:01:19.255Z,16.97
2018-03-01T16:03:47.515Z,15.53
2018-03-01T16:06:15.847Z,17.23
2018-03-01T16:08:44.853Z,18.23
2018-03-01T16:11:13.509Z,17.57
2018-03-01T16:13:42.847Z,17.67
2018-03-01T16:16:11.099Z,18.60
2018-03-01T16:18:39.355Z,18.30
2018-03-01T16:21:07.635Z,16.37
2018-03-01T16:23:36.659Z,15.07
2018-03-01T16:26:04.911Z,18.00
2018-03-01T16:28:33.183Z,17.97
2018-03-01T16:31:01.442Z,17.20
2018-03-01T16:33:30.470Z,17.70
2018-03-01T16:35:58.880Z,18.97
2018-03-01T16:38:27.211Z,17.60
2018-03-01T16:40:56.235Z,17.87
2018-03-01T16:43:24.498Z,18.77
2018-03-01T16:45:52.759Z,19.97
2018-03-01T16:48:21.014Z,18.87
2018-03-01T16:50:49.291Z,19.57
2018-03-01T16:53:17.539Z,18.23
2018-03-01T16:55:45.795Z,18.73
2018-03-01T16:58:14.602Z,18.97
2018-03-01T17:00:42.894Z,20.27
2018-03-01T17:03:11.303Z,18.70
2018-03-01T17:05:40.351Z,19.13
2018-03-01T17:08:08.647Z,20.90
2018-03-01T17:10:37.026Z,18.93
2018-03-01T17:13:05.427Z,20.50
2018-03-01T17:15:34.468Z,22.27
2018-03-01T17:18:02.793Z,19.47
2018-03-01T17:20:31.540Z,20.73
2018-03-01T17:22:59.844Z,20.97
2018-03-01T17:25:28.420Z,18.80
2018-03-01T17:27:56.679Z,18.97
2018-03-01T17:30:25.905Z,20.53
2018-03-01T17:32:54.283Z,22.53
2018-03-01T17:35:22.699Z,21.40
2018-03-01T17:37:51.191Z,21.43
2018-03-01T17:40:19.754Z,21.43
2018-03-01T17:42:48.845Z,21.43
2018-03-01T17:45:17.102Z,20.03
2018-03-01T17:47:46.416Z,22.30
2018-03-01T17:50:14.810Z,19.67
2018-03-01T17:52:43.831Z,21.27
2018-03-01T17:55:13.073Z,21.43
2018-03-01T17:57:41.507Z,20.90
2018-03-01T18:00:09.832Z,22.33
2018-03-01T18:02:38.214Z,22.97
2018-03-01T18:05:06.981Z,20.80
2018-03-01T18:07:35.303Z,20.93
2018-03-01T18:10:04.698Z,21.50
2018-03-01T18:12:33.623Z,21.53
2018-03-01T18:15:02.739Z,20.37
2018-03-01T18:17:32.227Z,21.47
2018-03-01T18:20:00.590Z,21.87
2018-03-01T18:22:29.623Z,22.50
2018-03-01T18:24:57.929Z,19.70
2018-03-01T18:27:26.390Z,22.67
2018-03-01T18:29:54.679Z,21.90
2018-03-01T18:32:23.063Z,22.83
2018-03-01T18:34:51.633Z,23.30
2018-03-01T18:37:20.129Z,22.87
2018-03-01T18:39:48.518Z,22.00
2018-03-01T18:42:16.918Z,23.03
2018-03-01T18:44:45.965Z,23.40
2018-03-01T18:47:15.647Z,23.03
2018-03-01T18:49:45.591Z,23.93
2018-03-01T18:52:15.007Z,23.00
2018-03-01T18:54:44.352Z,24.00
2018-03-01T18:57:12.719Z,21.00
2018-03-01T18:59:41.993Z,21.47
2018-03-01T19:02:10.377Z,22.90
2018-03-01T19:04:38.798Z,23.37
2018-03-01T19:07:07.463Z,22.53
2018-03-01T19:09:36.494Z,22.40
2018-03-01T19:12:04.900Z,23.50
2018-03-01T19:14:34.115Z,22.30
2018-03-01T19:17:02.514Z,21.43
2018-03-01T19:19:30.902Z,25.00
2018-03-01T19:21:59.921Z,24.60
2018-03-01T19:24:28.239Z,23.43
2018-03-01T19:26:56.647Z,22.63
2018-03-01T19:29:25.731Z,23.17
2018-03-01T19:31:53.996Z,22.73
2018-03-01T19:34:22.764Z,23.37
2018-03-01T19:36:52.010Z,22.97
2018-03-01T19:39:21.027Z,23.07
2018-03-01T19:41:49.379Z,22.57
2018-03-01T19:44:18.902Z,23.53
2018-03-01T19:46:47.647Z,22.60
2018-03-01T19:49:16.110Z,20.30
2018-03-01T19:51:57.246Z,20.10
2018-03-01T19:54:26.077Z,23.77
2018-03-01T19:56:54.371Z,23.90
2018-03-01T19:59:22.803Z,24.60
2018-03-01T20:01:51.159Z,22.73
2018-03-01T20:04:20.179Z,21.90
2018-03-01T20:06:48.510Z,23.80
2018-03-01T20:09:16.914Z,23.40
2018-03-01T20:11:45.931Z,23.03
2018-03-01T20:14:15.315Z,25.63
2018-03-01T20:16:44.383Z,21.10
2018-03-01T20:19:13.779Z,24.20
2018-03-01T20:21:42.159Z,23.00
2018-03-01T20:24:10.558Z,24.10
2018-03-01T20:26:40.770Z,23.17
2018-03-01T20:29:09.142Z,24.80
2018-03-01T20:31:37.543Z,23.93
2018-03-01T20:34:06.575Z,23.60
2018-03-01T20:36:34.886Z,24.67
2018-03-01T20:39:03.639Z,22.60
2018-03-01T20:41:32.891Z,24.40
2018-03-01T20:44:01.260Z,22.53
2018-03-01T20:46:29.666Z,23.10
2018-03-01T20:48:59.858Z,21.70
2018-03-01T20:51:28.239Z,22.70
2018-03-01T20:53:56.643Z,22.37
2018-03-01T20:56:25.666Z,23.27
2018-03-01T20:58:53.983Z,23.20
2018-03-01T21:01:22.760Z,24.23
2018-03-01T21:03:51.055Z,23.50
2018-03-01T21:06:19.432Z,24.00
2018-03-01T21:08:48.171Z,21.00
2018-03-01T21:11:16.695Z,24.20
2018-03-01T21:13:44.930Z,23.23
2018-03-01T21:16:13.451Z,22.40
2018-03-01T21:18:41.699Z,25.40
2018-03-01T21:21:12.167Z,22.53
2018-03-01T21:23:41.240Z,23.83
2018-03-01T21:26:09.535Z,23.73
2018-03-01T21:28:37.924Z,21.90
2018-03-01T21:31:07.238Z,22.87
2018-03-01T21:33:36.267Z,23.77
2018-03-01T21:36:04.595Z,23.83
2018-03-01T21:38:33.348Z,24.60
2018-03-01T21:41:01.687Z,24.50
2018-03-01T21:43:30.711Z,23.57
2018-03-01T21:45:59.411Z,22.40
2018-03-01T21:48:27.711Z,22.00
2018-03-01T21:50:56.099Z,23.40
2018-03-01T21:53:24.548Z,24.47
2018-03-01T21:55:54.695Z,23.87
2018-03-01T21:58:23.078Z,22.83
2018-03-01T22:00:52.570Z,23.63
2018-03-01T22:03:21.978Z,24.70
2018-03-01T22:05:51.288Z,23.60
2018-03-01T22:08:20.059Z,22.53
2018-03-01T22:10:49.303Z,23.10
2018-03-01T22:13:18.326Z,23.33
2018-03-01T22:15:47.027Z,24.50
2018-03-01T22:18:15.639Z,22.03
2018-03-01T22:20:44.023Z,16.87
2018-03-01T22:23:12.419Z,23.70
2018-03-01T22:25:41.459Z,24.60
2018-03-01T22:28:10.075Z,23.40
2018-03-01T22:30:38.580Z,26.00
2018-03-01T22:33:06.836Z,23.50
2018-03-01T22:35:35.238Z,22.30
2018-03-01T22:38:03.630Z,24.03
2018-03-01T22:40:32.642Z,26.00
2018-03-01T22:43:00.967Z,26.00
2018-03-01T22:45:29.395Z,21.40
2018-03-01T22:47:58.411Z,22.27
2018-03-01T22:50:26.676Z,25.90
2018-03-01T22:52:55.599Z,25.07
2018-03-01T22:55:23.850Z,26.43
2018-03-01T22:57:52.163Z,23.87
2018-03-01T23:00:32.171Z,23.33
2018-03-01T23:03:00.419Z,25.30
2018-03-01T23:05:29.591Z,26.17
2018-03-01T23:07:58.351Z,22.53
2018-03-01T23:10:26.647Z,23.47
2018-03-01T23:12:55.036Z,23.77
2018-03-01T23:15:23.306Z,24.93
2018-03-01T23:17:51.794Z,24.90
2018-03-01T23:20:20.167Z,25.10
2018-03-01T23:22:48.443Z,23.17
2018-03-01T23:25:16.708Z,26.20
2018-03-01T23:27:44.995Z,23.93
2018-03-01T23:30:13.763Z,24.00
2018-03-01T23:32:42.011Z,24.20
2018-03-01T23:35:10.264Z,24.87
2018-03-01T23:37:38.712Z,24.40
2018-03-01T23:40:06.967Z,25.27
2018-03-01T23:42:35.273Z,24.00
2018-03-01T23:45:03.680Z,24.00
2018-03-01T23:47:33.878Z,26.43
2018-03-01T23:50:02.252Z,25.37
2018-03-01T23:52:30.721Z,26.10
2018-03-01T23:54:59.010Z,24.53
2018-03-01T23:57:27.391Z,25.00
2018-03-01T23:59:55.798Z,27.00
